»·PEaware :: RNGR715 KNGP-KNGP

RNGR715 :: KNGP-KNGP

FLIGHT INFORMATION

Flight Status: Arrived
Operator: Unknown
More flights by this operator :: More flights under this callsign
Pilot: USN Avenger (31125)
Aircraft: BEECH AIRCRAFT T-6A TEXAN
(TEX2)
More flights by this aircraft type
Origin: KNGP Corpus Christi NAS/Truax
United States
Destination: KNGP Corpus Christi NAS/Truax
United States
More flights between these airports :: More routes between these airports
Route: K4MOA KNGT
File this flight plan on PilotEdge
Remarks:
Altitude:
(Current/Filed)
14,500ft
Speed:
(Current/Filed)
240kts
Departed: 21-Nov-23 12:13 PM
Arrived: 21-Nov-23 01:15 PM
Distance/Time
Traveled:
57nm/1:02
Distance/Time
To Go:
Arrived

Flight Plot

Page will automatically refresh every two minutes.

Flight plan parsing failed; only flown route is shown


Map Options




Map Legend


Flown Route
Filed Route
Departure Airport
Arrival Airport
Navaid (VOR, NDB)
Fix

Horizontal Profiles

Position Reports

Time Latitude Longitude Heading Altitude Ground
Speed
21-Nov-23 11:35 27.698545 -97.284285 158 22ft 0kts
21-Nov-23 11:36 27.698530 -97.284280 164 22ft 1kts
21-Nov-23 11:37 27.698307 -97.284371 156 22ft 0kts
21-Nov-23 11:38 27.698306 -97.284370 156 22ft 0kts
21-Nov-23 11:39 27.698304 -97.284369 156 22ft 0kts
21-Nov-23 11:40 27.698303 -97.284368 156 22ft 0kts
21-Nov-23 11:41 27.698301 -97.284368 156 22ft 0kts
21-Nov-23 11:42 27.698300 -97.284367 156 22ft 0kts
21-Nov-23 11:43 27.698298 -97.284366 156 22ft 0kts
21-Nov-23 11:44 27.698297 -97.284365 156 22ft 0kts
21-Nov-23 11:45 27.698295 -97.284365 156 22ft 0kts
21-Nov-23 11:46 27.698294 -97.284364 156 22ft 0kts
21-Nov-23 11:46 27.698292 -97.284363 156 22ft 0kts
21-Nov-23 11:48 27.698291 -97.284362 156 22ft 0kts
21-Nov-23 11:49 27.698289 -97.284362 156 22ft 0kts
21-Nov-23 11:50 27.698288 -97.284361 156 22ft 0kts
21-Nov-23 11:50 27.698286 -97.284360 156 22ft 0kts
21-Nov-23 11:51 27.698285 -97.284360 156 22ft 0kts
21-Nov-23 11:53 27.698285 -97.284360 156 22ft 0kts
21-Nov-23 11:58 27.698551 -97.284288 158 22ft 0kts
21-Nov-23 11:58 27.698550 -97.284288 158 22ft 0kts
21-Nov-23 11:59 27.698548 -97.284287 158 22ft 0kts
21-Nov-23 12:00 27.698547 -97.284286 158 22ft 0kts
21-Nov-23 12:01 27.698545 -97.284286 158 22ft 0kts
21-Nov-23 12:02 27.698544 -97.284285 158 22ft 0kts
21-Nov-23 12:03 27.698542 -97.284284 158 22ft 0kts
21-Nov-23 12:04 27.698541 -97.284284 158 22ft 0kts
21-Nov-23 12:05 27.698534 -97.284281 158 22ft 1kts
21-Nov-23 12:06 27.698454 -97.285558 336 22ft 12kts
21-Nov-23 12:07 27.697853 -97.288402 231 22ft 22kts
21-Nov-23 12:08 27.696570 -97.289960 225 22ft 0kts
21-Nov-23 12:09 27.696412 -97.290138 226 22ft 8kts
21-Nov-23 12:10 27.695901 -97.290766 225 22ft 0kts
21-Nov-23 12:11 27.695756 -97.290936 227 22ft 1kts
21-Nov-23 12:12 27.693898 -97.290266 135 22ft 63kts
21-Nov-23 12:13 27.667806 -97.254872 126 547ft 190kts
21-Nov-23 12:14 27.659925 -97.203174 29 2116ft 190kts
21-Nov-23 12:15 27.710574 -97.214726 344 4586ft 192kts
21-Nov-23 12:16 27.767152 -97.235334 344 5577ft 249kts
21-Nov-23 12:17 27.835832 -97.255189 345 5516ft 257kts
21-Nov-23 12:18 27.900921 -97.265820 358 7621ft 197kts
21-Nov-23 12:19 27.956607 -97.269886 352 9932ft 207kts
21-Nov-23 12:20 28.014272 -97.277142 356 12040ft 213kts
21-Nov-23 12:21 28.073805 -97.278404 359 13993ft 217kts
21-Nov-23 12:22 28.141795 -97.277625 356 14399ft 262kts
21-Nov-23 12:23 28.215606 -97.259794 33 14328ft 282kts
21-Nov-23 12:24 28.277219 -97.207969 16 15439ft 251kts
21-Nov-23 12:25 28.326268 -97.248163 250 16137ft 259kts
21-Nov-23 12:26 28.335755 -97.307267 326 16503ft 261kts
21-Nov-23 12:27 28.339479 -97.259533 46 17385ft 134kts
21-Nov-23 12:28 28.376770 -97.238193 357 16819ft 217kts
21-Nov-23 12:29 28.420158 -97.297062 299 15404ft 293kts
21-Nov-23 12:30 28.459966 -97.381691 297 14184ft 301kts
21-Nov-23 12:31 28.511913 -97.444653 320 10625ft 242kts
21-Nov-23 12:32 28.558072 -97.491556 322 6066ft 201kts
21-Nov-23 12:33 28.625305 -97.522663 334 4528ft 256kts
21-Nov-23 12:34 28.684941 -97.569242 295 3460ft 273kts
21-Nov-23 12:35 28.687608 -97.640098 167 1519ft 189kts
21-Nov-23 12:36 28.634313 -97.626869 172 1348ft 201kts
21-Nov-23 12:37 28.580432 -97.622739 230 1467ft 164kts
21-Nov-23 12:38 28.608865 -97.633387 350 1120ft 121kts
21-Nov-23 12:39 28.635948 -97.627229 120 719ft 101kts
21-Nov-23 12:40 28.609291 -97.619843 170 448ft 116kts
21-Nov-23 12:41 28.578487 -97.622458 278 1038ft 123kts
21-Nov-23 12:42 28.609011 -97.633655 345 1105ft 116kts
21-Nov-23 12:43 28.623679 -97.622602 167 449ft 107kts
21-Nov-23 12:44 28.594024 -97.616505 168 783ft 129kts
21-Nov-23 12:45 28.597897 -97.631709 347 1107ft 117kts
21-Nov-23 12:46 28.627484 -97.633135 61 766ft 106kts
21-Nov-23 12:47 28.607956 -97.619591 170 494ft 121kts
21-Nov-23 12:48 28.577453 -97.623056 272 1076ft 124kts
21-Nov-23 12:49 28.606085 -97.635416 348 1152ft 114kts
21-Nov-23 12:50 28.625390 -97.625351 134 508ft 107kts
21-Nov-23 12:51 28.596887 -97.617015 168 777ft 125kts
21-Nov-23 12:52 28.586947 -97.614512 168 810ft 132kts
21-Nov-23 12:53 28.586947 -97.614512 168 810ft 132kts
21-Nov-23 12:54 28.586947 -97.614512 168 810ft 132kts
21-Nov-23 12:55 28.586947 -97.614512 168 810ft 132kts
21-Nov-23 12:56 28.586947 -97.614512 168 810ft 132kts
21-Nov-23 12:57 28.586947 -97.614512 168 810ft 132kts
21-Nov-23 12:58 28.586947 -97.614512 168 810ft 132kts
21-Nov-23 12:59 28.586947 -97.614512 168 810ft 132kts
21-Nov-23 13:00 28.586947 -97.614512 168 810ft 132kts
21-Nov-23 13:01 28.586947 -97.614512 168 810ft 132kts
21-Nov-23 13:02 28.586947 -97.614512 168 810ft 132kts
21-Nov-23 13:03 28.586947 -97.614512 168 810ft 132kts
21-Nov-23 13:04 28.586947 -97.614512 168 810ft 132kts
21-Nov-23 13:05 28.586947 -97.614512 168 810ft 132kts
21-Nov-23 13:06 28.586947 -97.614512 168 810ft 132kts
21-Nov-23 13:07 28.586947 -97.614512 168 810ft 132kts
21-Nov-23 13:08 28.586947 -97.614512 168 810ft 132kts
21-Nov-23 13:09 28.586947 -97.614512 168 810ft 132kts
21-Nov-23 13:14 27.698209 -97.284118 153 22ft 0kts
21-Nov-23 13:15 28.648727 -97.254694 154 16019ft 183kts
21-Nov-23 13:16 28.617710 -97.266261 182 15011ft 210kts
21-Nov-23 13:17 28.566940 -97.223184 151 14987ft 247kts
21-Nov-23 13:18 28.556595 -97.272082 307 13603ft 293kts
21-Nov-23 13:19 28.600994 -97.346456 298 11115ft 276kts
21-Nov-23 13:20 28.630883 -97.424128 295 8091ft 260kts
21-Nov-23 13:21 28.656278 -97.499977 285 5078ft 252kts
21-Nov-23 13:22 28.677487 -97.571374 304 2487ft 240kts
21-Nov-23 13:23 28.695833 -97.631089 235 1874ft 197kts
21-Nov-23 13:24 28.641827 -97.628793 172 1330ft 205kts
21-Nov-23 13:25 28.586091 -97.619934 197 1312ft 184kts
21-Nov-23 13:26 28.602053 -97.638702 348 1185ft 112kts
21-Nov-23 13:27 28.628546 -97.632249 94 696ft 110kts
21-Nov-23 13:28 28.604864 -97.618458 168 513ft 121kts

Navigation Log

Ident Type
Flight plan parsing failed, navigation log unavailable